Time;durP1;ratioP1;P1;durP2;ratioP2;P2;SDS_P1;SDS_P2;PMS_P1;PMS_P2;Temp;Humidity;BMP_temperature;BMP_pressure;BME280_temperature;BME280_humidity;BME280_pressure;Samples;Min_cycle;Max_cycle;Signal;HPM_P1;HPM_P2
2023/03/19 00:01:45;;;;;;;;;;;12.40;70.70;;;;;;5005529;28;20553;-72
2023/03/19 00:04:12;;;;;;;;;;;12.40;70.80;;;;;;5036504;22;19936;-80
2023/03/19 00:06:39;;;;;;;;;;;12.40;70.90;;;;;;5020441;28;19940;-80
2023/03/19 00:09:06;;;;;;;;;;;12.30;70.90;;;;;;5019677;28;19939;-79
2023/03/19 00:11:33;;;;;;;;;;;12.30;70.90;;;;;;5022743;28;19976;-79
2023/03/19 00:14:00;;;;;;;;;;;12.30;70.90;;;;;;5023685;28;19933;-80
2023/03/19 00:16:27;;;;;;;;;;;12.30;71.10;;;;;;5022239;28;19933;-78
2023/03/19 00:18:54;;;;;;;;;;;12.30;71.20;;;;;;5023571;28;19943;-79
2023/03/19 00:21:20;;;;;;;;;;;12.30;71.50;;;;;;5020521;28;19929;-81
2023/03/19 00:23:47;;;;;;;;;;;12.30;72.00;;;;;;5021059;28;19959;-79
2023/03/19 00:26:13;;;;;;;;;;;12.20;71.70;;;;;;5022242;28;20675;-79
2023/03/19 00:28:40;;;;;;;;;;;12.30;71.80;;;;;;5023450;28;20304;-79
2023/03/19 00:31:09;;;;;;;;;;;12.20;72.60;;;;;;5018564;28;19936;-79
2023/03/19 00:33:36;;;;;;;;;;;12.20;71.80;;;;;;5019018;28;19933;-78
2023/03/19 00:36:03;;;;;;;;;;;12.20;71.60;;;;;;5019955;28;19929;-80
2023/03/19 00:38:29;;;;;;;;;;;12.20;71.60;;;;;;5019484;28;19929;-79
2023/03/19 00:40:56;;;;;;;;;;;12.20;71.80;;;;;;5016605;28;20043;-78
2023/03/19 00:43:22;;;;;;;;;;;12.20;72.00;;;;;;5019152;28;19937;-80
2023/03/19 00:45:49;;;;;;;;;;;12.20;72.20;;;;;;5019622;28;19929;-79
2023/03/19 00:48:17;;;;;;;;;;;12.20;72.30;;;;;;5015635;28;19937;-80
2023/03/19 00:50:44;;;;;;;;;;;12.10;72.50;;;;;;5018543;28;19930;-79
2023/03/19 00:53:10;;;;;;;;;;;12.10;72.80;;;;;;5016481;28;19929;-80
2023/03/19 00:55:37;;;;;;;;;;;12.10;72.80;;;;;;5017192;28;19983;-81
2023/03/19 00:58:05;;;;;;;;;;;12.10;72.90;;;;;;5018147;28;19929;-79
2023/03/19 01:00:31;;;;;;;;;;;12.10;73.20;;;;;;5020243;28;20012;-80
2023/03/19 01:02:58;;;;;;;;;;;12.10;73.30;;;;;;5011109;28;19944;-78
2023/03/19 01:05:26;;;;;;;;;;;12.10;73.40;;;;;;5013055;28;19936;-81
2023/03/19 01:07:53;;;;;;;;;;;12.10;73.50;;;;;;5019198;28;19929;-80
2023/03/19 01:10:20;;;;;;;;;;;12.00;73.60;;;;;;5020205;28;19929;-79
2023/03/19 01:12:47;;;;;;;;;;;12.00;73.70;;;;;;5019865;28;19929;-80
2023/03/19 01:15:13;;;;;;;;;;;12.10;73.90;;;;;;5018286;28;19933;-80
2023/03/19 01:17:41;;;;;;;;;;;12.00;74.00;;;;;;5020565;28;19929;-79
2023/03/19 01:20:11;;;;;;;;;;;12.00;74.10;;;;;;5020294;28;20555;-81
2023/03/19 01:22:40;;;;;;;;;;;12.00;74.10;;;;;;5017110;28;20286;-80
2023/03/19 01:25:07;;;;;;;;;;;11.90;74.20;;;;;;5014678;28;19932;-80
2023/03/19 01:27:34;;;;;;;;;;;11.90;74.30;;;;;;5020908;28;19933;-81
2023/03/19 01:30:01;;;;;;;;;;;11.90;74.40;;;;;;5022341;28;19936;-81
2023/03/19 01:32:27;;;;;;;;;;;11.90;74.40;;;;;;5022801;28;19988;-79
2023/03/19 01:34:54;;;;;;;;;;;11.90;74.50;;;;;;5020091;28;20563;-79
2023/03/19 01:37:20;;;;;;;;;;;11.90;74.60;;;;;;5023806;28;20250;-81
2023/03/19 01:39:48;;;;;;;;;;;11.90;74.50;;;;;;5019391;28;19933;-80
2023/03/19 01:42:15;;;;;;;;;;;11.90;74.60;;;;;;5018725;28;19991;-81
2023/03/19 01:44:43;;;;;;;;;;;11.90;74.60;;;;;;5017647;28;20003;-81
2023/03/19 01:47:15;;;;;;;;;;;11.90;74.60;;;;;;5018718;28;20320;-79
2023/03/19 01:49:44;;;;;;;;;;;11.90;74.50;;;;;;5016694;28;19940;-79
2023/03/19 01:52:11;;;;;;;;;;;11.80;74.40;;;;;;5020844;28;20193;-79
2023/03/19 01:54:38;;;;;;;;;;;11.80;74.30;;;;;;5022424;28;19933;-78
2023/03/19 01:57:08;;;;;;;;;;;11.90;74.20;;;;;;5021967;28;19936;-78
2023/03/19 01:59:36;;;;;;;;;;;11.80;73.90;;;;;;5015415;28;19936;-80
2023/03/19 02:02:05;;;;;;;;;;;11.80;73.70;;;;;;5018996;28;19930;-80
2023/03/19 02:04:31;;;;;;;;;;;11.80;73.40;;;;;;5020778;28;19937;-80
2023/03/19 02:06:59;;;;;;;;;;;11.80;73.10;;;;;;5021155;28;20398;-79
2023/03/19 02:09:27;;;;;;;;;;;11.80;72.80;;;;;;5016406;28;20052;-80
2023/03/19 02:11:54;;;;;;;;;;;11.80;72.80;;;;;;5013552;28;19945;-78
2023/03/19 02:14:22;;;;;;;;;;;11.80;72.50;;;;;;5013985;28;19929;-81
2023/03/19 02:16:48;;;;;;;;;;;11.80;72.10;;;;;;5019458;28;20316;-80
2023/03/19 02:19:19;;;;;;;;;;;11.80;71.80;;;;;;5017266;28;20813;-78
2023/03/19 02:21:46;;;;;;;;;;;11.80;71.70;;;;;;5013188;28;19960;-80
2023/03/19 02:24:15;;;;;;;;;;;11.80;71.50;;;;;;5018851;28;19929;-80
2023/03/19 02:26:44;;;;;;;;;;;11.80;71.30;;;;;;5019104;28;19929;-79
2023/03/19 02:29:13;;;;;;;;;;;11.80;71.20;;;;;;5013887;28;19933;-82
2023/03/19 02:31:40;;;;;;;;;;;11.80;71.10;;;;;;5013412;28;20007;-79
2023/03/19 02:34:07;;;;;;;;;;;11.80;70.80;;;;;;5014310;28;20393;-81
2023/03/19 02:36:36;;;;;;;;;;;11.80;70.70;;;;;;5016829;28;19925;-79
2023/03/19 02:39:04;;;;;;;;;;;11.80;70.70;;;;;;5014010;28;19996;-80
2023/03/19 02:41:31;;;;;;;;;;;11.80;70.70;;;;;;5010577;28;19929;-80
2023/03/19 02:44:00;;;;;;;;;;;11.80;70.80;;;;;;5015926;28;19936;-81
2023/03/19 02:46:27;;;;;;;;;;;11.80;70.70;;;;;;5014848;28;20300;-79
2023/03/19 02:48:53;;;;;;;;;;;11.80;70.70;;;;;;5017060;28;19929;-78
2023/03/19 02:51:20;;;;;;;;;;;11.80;70.70;;;;;;5011515;28;19952;-80
2023/03/19 02:53:46;;;;;;;;;;;11.80;70.80;;;;;;5017299;28;19929;-81
2023/03/19 02:56:13;;;;;;;;;;;11.80;70.90;;;;;;5011469;28;20250;-78
2023/03/19 02:58:40;;;;;;;;;;;11.80;71.10;;;;;;5012396;28;20539;-81
2023/03/19 03:01:07;;;;;;;;;;;11.80;71.10;;;;;;5013487;28;20301;-80
2023/03/19 03:03:34;;;;;;;;;;;11.80;71.30;;;;;;5017065;28;19929;-81
2023/03/19 03:06:01;;;;;;;;;;;11.80;71.50;;;;;;5016255;28;19929;-80
2023/03/19 03:08:30;;;;;;;;;;;11.80;71.60;;;;;;5017998;28;19991;-79
2023/03/19 03:10:57;;;;;;;;;;;11.80;71.70;;;;;;5017681;28;19930;-84
2023/03/19 03:13:23;;;;;;;;;;;11.80;71.80;;;;;;5024167;28;19928;-85
2023/03/19 03:15:50;;;;;;;;;;;11.80;71.90;;;;;;5030342;28;19929;-82
2023/03/19 03:18:18;;;;;;;;;;;11.70;71.90;;;;;;5023676;28;19929;-83
2023/03/19 03:20:45;;;;;;;;;;;11.80;72.00;;;;;;5030852;28;19925;-83
2023/03/19 03:23:12;;;;;;;;;;;11.70;72.00;;;;;;5029466;28;19948;-84
2023/03/19 03:25:38;;;;;;;;;;;11.70;72.10;;;;;;5031308;28;19940;-84
2023/03/19 03:28:05;;;;;;;;;;;11.80;72.20;;;;;;5031187;28;19929;-83
2023/03/19 03:30:32;;;;;;;;;;;11.70;72.20;;;;;;5029176;28;19925;-83
2023/03/19 03:32:58;;;;;;;;;;;11.70;72.00;;;;;;5025380;28;20425;-84
2023/03/19 03:35:26;;;;;;;;;;;11.70;72.00;;;;;;5031891;28;19929;-84
2023/03/19 03:37:53;;;;;;;;;;;11.80;72.20;;;;;;5029529;28;19929;-85
2023/03/19 03:40:20;;;;;;;;;;;11.70;72.20;;;;;;5024892;28;19936;-85
2023/03/19 03:42:46;;;;;;;;;;;11.70;72.30;;;;;;5028496;28;19936;-84
2023/03/19 03:45:13;;;;;;;;;;;11.70;72.40;;;;;;5028025;28;19941;-81
2023/03/19 03:47:39;;;;;;;;;;;11.70;72.50;;;;;;5021661;28;19936;-77
2023/03/19 03:50:09;;;;;;;;;;;11.70;72.50;;;;;;5019701;28;20434;-81
2023/03/19 03:52:37;;;;;;;;;;;11.70;72.50;;;;;;5019896;28;20370;-78
2023/03/19 03:55:04;;;;;;;;;;;11.70;72.60;;;;;;5019201;28;19929;-79
2023/03/19 03:57:31;;;;;;;;;;;11.70;72.70;;;;;;5021933;28;19933;-79
2023/03/19 03:59:57;;;;;;;;;;;11.70;72.80;;;;;;5011000;28;19933;-80
2023/03/19 04:02:24;;;;;;;;;;;11.60;72.80;;;;;;5021867;28;20023;-79
2023/03/19 04:04:51;;;;;;;;;;;11.70;72.90;;;;;;5026021;28;19944;-78
2023/03/19 04:07:18;;;;;;;;;;;11.60;73.00;;;;;;5022633;28;20011;-80
2023/03/19 04:09:46;;;;;;;;;;;11.60;73.00;;;;;;5020746;28;20030;-78
2023/03/19 04:12:12;;;;;;;;;;;11.60;73.00;;;;;;5019561;28;19955;-78
2023/03/19 04:14:39;;;;;;;;;;;11.60;73.80;;;;;;5016897;28;19987;-80
2023/03/19 04:17:06;;;;;;;;;;;11.60;73.10;;;;;;5025573;28;19936;-82
2023/03/19 04:19:32;;;;;;;;;;;11.60;73.20;;;;;;5032693;28;19936;-81
2023/03/19 04:21:59;;;;;;;;;;;11.60;73.20;;;;;;5027854;28;19940;-84
2023/03/19 04:24:26;;;;;;;;;;;11.60;73.30;;;;;;5029761;28;20013;-84
2023/03/19 04:26:54;;;;;;;;;;;11.60;73.30;;;;;;5031038;28;20295;-84
2023/03/19 04:29:21;;;;;;;;;;;11.60;73.40;;;;;;5026779;28;19929;-83
2023/03/19 04:31:48;;;;;;;;;;;11.60;73.40;;;;;;5019148;28;19979;-83
2023/03/19 04:34:14;;;;;;;;;;;11.60;73.40;;;;;;5025567;28;19929;-83
2023/03/19 04:36:41;;;;;;;;;;;11.50;73.40;;;;;;5025691;28;19937;-82
2023/03/19 04:39:08;;;;;;;;;;;11.60;73.60;;;;;;5028561;28;19930;-83
2023/03/19 04:41:35;;;;;;;;;;;11.60;73.70;;;;;;5032505;28;20694;-82
2023/03/19 04:44:03;;;;;;;;;;;11.50;73.70;;;;;;5022348;28;19929;-79
2023/03/19 04:46:30;;;;;;;;;;;11.50;73.70;;;;;;5024396;28;20377;-80
2023/03/19 04:48:56;;;;;;;;;;;11.50;73.50;;;;;;5021631;28;19991;-79
2023/03/19 04:51:23;;;;;;;;;;;11.50;73.30;;;;;;5026417;28;19940;-80
2023/03/19 04:53:49;;;;;;;;;;;11.50;73.20;;;;;;5025547;28;19929;-80
2023/03/19 04:56:16;;;;;;;;;;;11.50;73.10;;;;;;5026437;28;19936;-81
2023/03/19 04:58:43;;;;;;;;;;;11.50;73.10;;;;;;5023430;28;20417;-80
2023/03/19 05:01:11;;;;;;;;;;;11.50;73.10;;;;;;5025652;28;19933;-80
2023/03/19 05:03:38;;;;;;;;;;;11.50;73.00;;;;;;5026914;28;19929;-81
2023/03/19 05:06:05;;;;;;;;;;;11.50;73.00;;;;;;5029007;28;19958;-80
2023/03/19 05:08:32;;;;;;;;;;;11.50;72.80;;;;;;5030995;28;19933;-81
2023/03/19 05:10:59;;;;;;;;;;;11.50;72.50;;;;;;5023453;28;19937;-80
2023/03/19 05:13:25;;;;;;;;;;;11.50;72.60;;;;;;5023160;28;20748;-81
2023/03/19 05:15:52;;;;;;;;;;;11.50;72.50;;;;;;5029575;28;19933;-79
2023/03/19 05:18:21;;;;;;;;;;;11.50;72.30;;;;;;5023099;28;19929;-82
2023/03/19 05:20:48;;;;;;;;;;;11.40;72.20;;;;;;5024733;28;19964;-82
2023/03/19 05:23:16;;;;;;;;;;;11.50;72.10;;;;;;5026732;28;19929;-81
2023/03/19 05:25:43;;;;;;;;;;;11.50;71.90;;;;;;5024476;28;19929;-80
2023/03/19 05:28:09;;;;;;;;;;;11.50;72.00;;;;;;5027784;28;20003;-81
2023/03/19 05:30:36;;;;;;;;;;;11.50;71.90;;;;;;5021083;28;19980;-81
2023/03/19 05:33:03;;;;;;;;;;;11.50;71.90;;;;;;5021772;28;19933;-80
2023/03/19 05:35:31;;;;;;;;;;;11.50;71.80;;;;;;5028553;28;20021;-81
2023/03/19 05:37:58;;;;;;;;;;;11.50;71.80;;;;;;5025317;28;20745;-80
2023/03/19 05:40:24;;;;;;;;;;;11.50;71.90;;;;;;5024337;28;19929;-82
2023/03/19 05:42:51;;;;;;;;;;;11.40;71.90;;;;;;5026221;28;20129;-80
2023/03/19 05:45:18;;;;;;;;;;;11.50;72.10;;;;;;5018510;28;19929;-80
2023/03/19 05:47:46;;;;;;;;;;;11.50;72.20;;;;;;5022821;28;19929;-82
2023/03/19 05:50:13;;;;;;;;;;;11.50;72.30;;;;;;5022962;28;19971;-80
2023/03/19 05:52:41;;;;;;;;;;;11.40;72.30;;;;;;5025883;28;19929;-81
2023/03/19 05:55:08;;;;;;;;;;;11.50;72.50;;;;;;5026127;28;20389;-80
2023/03/19 05:57:35;;;;;;;;;;;11.50;72.60;;;;;;5025064;28;19935;-81
2023/03/19 06:00:01;;;;;;;;;;;11.40;72.60;;;;;;5020854;28;20417;-80
2023/03/19 06:02:28;;;;;;;;;;;11.40;72.70;;;;;;5019263;28;19937;-81
2023/03/19 06:04:54;;;;;;;;;;;11.40;72.80;;;;;;5022447;28;19929;-81
2023/03/19 06:07:21;;;;;;;;;;;11.30;72.80;;;;;;5018642;28;19929;-80
2023/03/19 06:09:49;;;;;;;;;;;11.40;73.10;;;;;;5022704;28;19983;-80
2023/03/19 06:12:16;;;;;;;;;;;11.40;73.20;;;;;;5023565;28;19964;-81
2023/03/19 06:14:42;;;;;;;;;;;11.40;73.30;;;;;;5023687;28;19972;-80
2023/03/19 06:17:09;;;;;;;;;;;11.40;73.40;;;;;;5019838;28;19929;-79
2023/03/19 06:19:35;;;;;;;;;;;11.30;73.50;;;;;;5022393;28;19929;-80
2023/03/19 06:22:02;;;;;;;;;;;11.50;73.70;;;;;;5021343;28;20207;-81
2023/03/19 06:24:29;;;;;;;;;;;11.40;73.70;;;;;;5022239;28;20259;-81
2023/03/19 06:26:57;;;;;;;;;;;11.40;73.90;;;;;;5024358;28;19929;-81
2023/03/19 06:29:23;;;;;;;;;;;11.40;74.00;;;;;;5024352;28;20007;-81
2023/03/19 06:31:50;;;;;;;;;;;11.40;74.10;;;;;;5024046;28;19929;-81
2023/03/19 06:34:17;;;;;;;;;;;11.40;74.80;;;;;;5015900;28;20372;-81
2023/03/19 06:36:43;;;;;;;;;;;11.40;74.30;;;;;;5017967;28;19929;-79
2023/03/19 06:39:10;;;;;;;;;;;11.30;74.40;;;;;;5024945;28;19929;-78
2023/03/19 06:41:36;;;;;;;;;;;11.40;74.60;;;;;;5024382;28;19999;-80
2023/03/19 06:44:04;;;;;;;;;;;11.40;74.80;;;;;;5022018;28;19964;-80
2023/03/19 06:46:31;;;;;;;;;;;11.30;75.00;;;;;;5018154;28;20348;-80
2023/03/19 06:48:57;;;;;;;;;;;11.30;75.10;;;;;;5022779;28;20321;-80
2023/03/19 06:51:26;;;;;;;;;;;11.30;75.30;;;;;;5026337;28;19929;-79
2023/03/19 06:53:53;;;;;;;;;;;11.30;75.50;;;;;;5024552;28;19935;-79
2023/03/19 06:56:19;;;;;;;;;;;11.30;75.60;;;;;;5025895;28;19929;-80
2023/03/19 06:58:46;;;;;;;;;;;11.30;75.60;;;;;;5024361;28;19929;-80
2023/03/19 07:01:15;;;;;;;;;;;11.30;75.60;;;;;;5027035;28;19925;-81
2023/03/19 07:03:41;;;;;;;;;;;11.30;75.70;;;;;;5025044;28;19925;-80
2023/03/19 07:06:08;;;;;;;;;;;11.30;75.80;;;;;;5026102;28;19932;-79
2023/03/19 07:08:34;;;;;;;;;;;11.30;76.10;;;;;;5024292;28;20264;-79
2023/03/19 07:11:03;;;;;;;;;;;11.30;76.10;;;;;;5024626;28;19995;-79
2023/03/19 07:13:30;;;;;;;;;;;11.30;76.40;;;;;;5024654;28;19991;-80
2023/03/19 07:15:57;;;;;;;;;;;11.40;76.70;;;;;;5026990;28;19933;-80
2023/03/19 07:18:25;;;;;;;;;;;11.30;76.80;;;;;;5027418;28;19929;-81
2023/03/19 07:20:52;;;;;;;;;;;11.30;76.80;;;;;;5029516;28;20313;-80
2023/03/19 07:23:19;;;;;;;;;;;11.30;76.90;;;;;;5028046;28;19951;-80
2023/03/19 07:25:46;;;;;;;;;;;11.30;77.00;;;;;;5027411;28;20674;-80
2023/03/19 07:28:13;;;;;;;;;;;11.30;77.20;;;;;;5027576;28;19929;-80
2023/03/19 07:30:39;;;;;;;;;;;11.30;77.20;;;;;;5027547;28;20454;-80
2023/03/19 07:33:06;;;;;;;;;;;11.30;77.30;;;;;;5025868;28;20637;-80
2023/03/19 07:35:35;;;;;;;;;;;11.40;77.40;;;;;;5026712;28;20051;-80
2023/03/19 07:38:02;;;;;;;;;;;11.40;77.60;;;;;;5027232;28;19940;-79
2023/03/19 07:40:28;;;;;;;;;;;11.40;77.80;;;;;;5025179;28;19929;-80
2023/03/19 07:42:55;;;;;;;;;;;11.30;77.80;;;;;;5025716;28;20693;-82
2023/03/19 07:45:22;;;;;;;;;;;11.40;78.00;;;;;;5025236;28;19929;-80
2023/03/19 07:47:50;;;;;;;;;;;11.40;78.10;;;;;;5026569;28;19925;-79
2023/03/19 07:50:17;;;;;;;;;;;11.40;78.20;;;;;;5027027;28;20258;-79
2023/03/19 07:52:46;;;;;;;;;;;11.40;78.20;;;;;;5027394;28;19933;-80
2023/03/19 07:55:13;;;;;;;;;;;11.30;78.10;;;;;;5020548;28;20012;-81
2023/03/19 07:57:39;;;;;;;;;;;11.40;78.20;;;;;;5022907;28;19940;-79
2023/03/19 08:00:07;;;;;;;;;;;11.40;78.30;;;;;;5022239;28;19928;-80
2023/03/19 08:02:34;;;;;;;;;;;11.40;78.30;;;;;;5020207;28;19956;-81
2023/03/19 08:05:03;;;;;;;;;;;11.40;78.40;;;;;;5026448;28;19940;-83
2023/03/19 08:07:30;;;;;;;;;;;11.40;78.60;;;;;;5020562;28;19982;-81
2023/03/19 08:09:58;;;;;;;;;;;11.40;79.30;;;;;;5024323;28;19940;-81
2023/03/19 08:12:24;;;;;;;;;;;11.40;78.70;;;;;;5022978;28;19987;-80
2023/03/19 08:14:51;;;;;;;;;;;11.40;78.80;;;;;;5021638;28;19933;-81
2023/03/19 08:17:18;;;;;;;;;;;11.50;78.80;;;;;;5018693;28;19937;-80
2023/03/19 08:19:44;;;;;;;;;;;11.50;78.80;;;;;;5018835;28;20063;-79
2023/03/19 08:22:11;;;;;;;;;;;11.50;78.70;;;;;;5022050;28;19929;-81
2023/03/19 08:24:38;;;;;;;;;;;11.50;78.70;;;;;;5024578;28;19928;-79
2023/03/19 08:27:06;;;;;;;;;;;11.50;78.70;;;;;;5023473;28;20048;-80
2023/03/19 08:29:33;;;;;;;;;;;11.50;78.70;;;;;;5026613;28;20484;-81
2023/03/19 08:32:00;;;;;;;;;;;11.60;78.70;;;;;;5026876;28;19933;-80
2023/03/19 08:34:26;;;;;;;;;;;11.60;78.80;;;;;;5025209;28;19992;-80
2023/03/19 08:36:53;;;;;;;;;;;11.60;78.70;;;;;;5027676;28;20001;-80
2023/03/19 08:39:19;;;;;;;;;;;11.60;78.60;;;;;;5025199;28;19934;-81
2023/03/19 08:41:46;;;;;;;;;;;11.70;78.50;;;;;;5026180;28;19929;-81
2023/03/19 08:44:14;;;;;;;;;;;11.70;78.50;;;;;;5024152;28;20018;-80
2023/03/19 08:46:41;;;;;;;;;;;11.70;78.50;;;;;;5027100;28;19937;-80
2023/03/19 08:49:07;;;;;;;;;;;11.70;78.40;;;;;;5023695;28;20082;-80
2023/03/19 08:51:35;;;;;;;;;;;11.80;78.40;;;;;;5023521;28;20816;-80
2023/03/19 08:54:01;;;;;;;;;;;11.80;78.40;;;;;;5024439;28;20386;-81
2023/03/19 08:56:28;;;;;;;;;;;11.80;78.40;;;;;;5029266;28;20006;-80
2023/03/19 08:58:55;;;;;;;;;;;11.80;78.30;;;;;;5028129;28;19933;-81
2023/03/19 09:01:23;;;;;;;;;;;11.90;78.30;;;;;;5028831;28;19956;-80
2023/03/19 09:03:50;;;;;;;;;;;11.90;78.70;;;;;;5028595;28;19940;-81
2023/03/19 09:06:16;;;;;;;;;;;11.90;78.80;;;;;;5026719;28;19929;-81
2023/03/19 09:08:43;;;;;;;;;;;12.00;78.90;;;;;;5030439;28;19929;-81
2023/03/19 09:11:10;;;;;;;;;;;12.00;78.70;;;;;;5027048;28;19996;-80
2023/03/19 09:13:37;;;;;;;;;;;12.00;78.50;;;;;;5025800;28;20007;-80
2023/03/19 09:16:04;;;;;;;;;;;12.10;78.50;;;;;;5029139;28;19933;-80
2023/03/19 09:18:32;;;;;;;;;;;12.10;78.30;;;;;;5030196;28;19932;-80
2023/03/19 09:20:58;;;;;;;;;;;12.10;78.20;;;;;;5029551;28;20629;-80
2023/03/19 09:23:25;;;;;;;;;;;12.10;78.10;;;;;;5022983;28;19933;-80
2023/03/19 09:25:51;;;;;;;;;;;12.10;78.20;;;;;;5029175;28;19925;-78
2023/03/19 09:28:18;;;;;;;;;;;12.10;78.30;;;;;;5030449;28;19952;-80
2023/03/19 09:30:45;;;;;;;;;;;12.10;78.30;;;;;;5027195;28;19929;-80
2023/03/19 09:33:12;;;;;;;;;;;12.20;78.40;;;;;;5023115;28;20040;-80
2023/03/19 09:35:40;;;;;;;;;;;12.20;78.30;;;;;;5025626;28;19936;-81
2023/03/19 09:38:06;;;;;;;;;;;12.20;78.10;;;;;;5027533;28;19933;-82
2023/03/19 09:40:36;;;;;;;;;;;12.30;77.60;;;;;;5024386;28;19929;-80
2023/03/19 09:43:09;;;;;;;;;;;12.30;77.20;;;;;;5024945;28;19940;-80
2023/03/19 09:45:36;;;;;;;;;;;12.40;76.90;;;;;;5023171;28;19929;-80
2023/03/19 09:48:05;;;;;;;;;;;12.40;75.90;;;;;;5024710;28;19933;-80
2023/03/19 09:50:33;;;;;;;;;;;12.40;75.80;;;;;;5026550;28;19979;-81
2023/03/19 09:53:04;;;;;;;;;;;12.50;75.60;;;;;;5023854;28;19929;-81
2023/03/19 09:55:35;;;;;;;;;;;12.60;75.40;;;;;;5022008;28;19930;-81
2023/03/19 09:58:02;;;;;;;;;;;12.60;74.40;;;;;;5021053;28;19940;-80
2023/03/19 10:00:30;;;;;;;;;;;12.70;74.30;;;;;;5023930;28;19937;-81
2023/03/19 10:03:01;;;;;;;;;;;12.80;73.90;;;;;;5021325;28;19933;-80
2023/03/19 10:05:31;;;;;;;;;;;12.80;74.00;;;;;;5023684;28;19928;-80
2023/03/19 10:08:10;;;;;;;;;;;12.80;74.10;;;;;;5020396;28;19929;-80
2023/03/19 10:10:45;;;;;;;;;;;12.90;73.70;;;;;;5020291;28;19929;-81
2023/03/19 10:13:18;;;;;;;;;;;12.90;73.20;;;;;;5024708;28;19925;-81
2023/03/19 10:15:45;;;;;;;;;;;13.00;72.70;;;;;;5022106;28;19976;-81
2023/03/19 10:18:15;;;;;;;;;;;13.10;72.40;;;;;;5024708;28;19932;-83
2023/03/19 10:20:47;;;;;;;;;;;13.10;72.60;;;;;;5025921;28;20151;-80
2023/03/19 10:23:24;;;;;;;;;;;13.10;73.00;;;;;;5025375;28;20075;-79
2023/03/19 10:25:52;;;;;;;;;;;13.20;72.60;;;;;;5026426;28;19929;-82
2023/03/19 10:28:19;;;;;;;;;;;13.30;72.40;;;;;;5028164;28;19932;-81
2023/03/19 10:30:51;;;;;;;;;;;13.30;71.90;;;;;;5026695;28;19933;-82
2023/03/19 10:33:22;;;;;;;;;;;13.50;71.70;;;;;;5028137;28;20437;-81
2023/03/19 10:35:50;;;;;;;;;;;13.40;71.40;;;;;;5023242;28;19968;-80
2023/03/19 10:38:19;;;;;;;;;;;13.60;71.10;;;;;;5026652;28;19933;-82
2023/03/19 10:40:54;;;;;;;;;;;13.60;70.40;;;;;;5025422;28;19929;-80
2023/03/19 10:43:22;;;;;;;;;;;13.70;70.50;;;;;;5026752;28;19929;-82
2023/03/19 10:45:49;;;;;;;;;;;13.80;69.50;;;;;;5027204;28;19929;-82
2023/03/19 10:48:16;;;;;;;;;;;13.90;69.00;;;;;;5026279;28;19929;-81
2023/03/19 10:50:47;;;;;;;;;;;14.00;67.90;;;;;;5020128;28;19929;-81
2023/03/19 10:53:25;;;;;;;;;;;14.00;67.90;;;;;;5020080;28;20020;-80
2023/03/19 10:55:55;;;;;;;;;;;14.10;68.40;;;;;;5026184;28;19929;-79
2023/03/19 10:58:23;;;;;;;;;;;14.10;67.00;;;;;;5023625;28;19929;-80
2023/03/19 11:00:55;;;;;;;;;;;14.10;66.90;;;;;;5029060;28;19929;-82
2023/03/19 11:03:28;;;;;;;;;;;14.10;66.60;;;;;;5027772;28;20048;-80
2023/03/19 11:06:03;;;;;;;;;;;14.10;66.60;;;;;;5027675;28;19933;-80
2023/03/19 11:08:30;;;;;;;;;;;14.10;66.60;;;;;;5027589;28;19960;-81
2023/03/19 11:10:58;;;;;;;;;;;14.10;67.00;;;;;;5020576;28;19975;-81
2023/03/19 11:13:25;;;;;;;;;;;14.10;67.00;;;;;;5028736;28;20016;-82
2023/03/19 11:15:52;;;;;;;;;;;14.10;66.90;;;;;;5031301;28;19936;-80
2023/03/19 11:18:21;;;;;;;;;;;14.10;67.20;;;;;;5029557;28;20279;-82
2023/03/19 11:20:49;;;;;;;;;;;14.10;66.90;;;;;;5030954;28;19948;-83
2023/03/19 11:23:16;;;;;;;;;;;14.10;67.60;;;;;;5030533;28;19971;-82
2023/03/19 11:25:46;;;;;;;;;;;14.10;67.60;;;;;;5030013;28;19964;-83
2023/03/19 11:28:16;;;;;;;;;;;14.20;67.20;;;;;;5029545;28;20007;-82
2023/03/19 11:30:48;;;;;;;;;;;14.20;67.30;;;;;;5026482;28;19933;-81
2023/03/19 11:33:30;;;;;;;;;;;14.20;67.30;;;;;;5029424;28;20041;-81
2023/03/19 11:36:01;;;;;;;;;;;14.30;67.30;;;;;;5017582;28;20030;-80
2023/03/19 11:38:30;;;;;;;;;;;14.30;66.90;;;;;;5028962;28;19929;-80
2023/03/19 11:41:02;;;;;;;;;;;14.30;67.10;;;;;;5025068;28;19929;-82
2023/03/19 11:43:39;;;;;;;;;;;14.30;67.10;;;;;;5025799;28;19975;-84
2023/03/19 11:46:09;;;;;;;;;;;14.30;67.20;;;;;;5025761;28;19929;-82
2023/03/19 11:48:42;;;;;;;;;;;14.30;66.90;;;;;;5027143;28;19933;-83
2023/03/19 11:51:11;;;;;;;;;;;14.40;67.30;;;;;;5028754;28;20312;-81
2023/03/19 11:53:38;;;;;;;;;;;14.40;67.30;;;;;;5027773;28;19969;-81
2023/03/19 11:56:09;;;;;;;;;;;14.40;66.30;;;;;;5025139;28;20114;-82
2023/03/19 11:58:52;;;;;;;;;;;14.30;66.60;;;;;;5022998;28;19936;-81
2023/03/19 12:01:28;;;;;;;;;;;14.30;66.60;;;;;;5026630;28;19936;-81
2023/03/19 12:04:01;;;;;;;;;;;14.40;67.00;;;;;;5025416;28;19928;-82
2023/03/19 12:06:35;;;;;;;;;;;14.40;67.30;;;;;;5028277;28;19937;-82
2023/03/19 12:09:03;;;;;;;;;;;14.40;67.20;;;;;;5026752;28;19964;-82
2023/03/19 12:11:33;;;;;;;;;;;14.40;67.10;;;;;;5027817;28;20432;-82
2023/03/19 12:14:07;;;;;;;;;;;14.50;66.90;;;;;;5026850;28;19936;-82
2023/03/19 12:16:39;;;;;;;;;;;14.50;67.00;;;;;;5027939;28;19956;-81
2023/03/19 12:19:13;;;;;;;;;;;14.50;66.90;;;;;;5027588;28;19936;-81
2023/03/19 12:21:46;;;;;;;;;;;14.50;67.10;;;;;;5026916;28;19932;-81
2023/03/19 12:24:19;;;;;;;;;;;14.60;67.30;;;;;;5027472;28;20503;-81
2023/03/19 12:26:49;;;;;;;;;;;14.60;67.00;;;;;;5029391;28;19933;-82
2023/03/19 12:29:22;;;;;;;;;;;14.70;66.90;;;;;;5022485;28;20141;-81
2023/03/19 12:31:53;;;;;;;;;;;14.80;66.90;;;;;;5027359;28;19929;-80
2023/03/19 12:34:24;;;;;;;;;;;14.80;66.80;;;;;;5023605;28;19936;-82
2023/03/19 12:36:53;;;;;;;;;;;14.80;66.70;;;;;;5026022;28;19933;-80
2023/03/19 12:39:22;;;;;;;;;;;14.90;66.80;;;;;;5023031;28;19988;-82
2023/03/19 12:41:50;;;;;;;;;;;15.00;66.70;;;;;;5026567;28;20503;-82
2023/03/19 12:44:20;;;;;;;;;;;15.00;66.40;;;;;;5028410;28;19961;-83
2023/03/19 12:46:50;;;;;;;;;;;15.10;66.60;;;;;;5026698;28;20043;-81
2023/03/19 12:49:19;;;;;;;;;;;15.10;66.50;;;;;;5026152;28;19940;-83
2023/03/19 12:51:48;;;;;;;;;;;15.10;66.20;;;;;;5024088;28;19940;-82
2023/03/19 12:54:19;;;;;;;;;;;15.10;66.20;;;;;;5025861;28;19932;-82
2023/03/19 12:56:48;;;;;;;;;;;15.10;66.10;;;;;;5023824;28;19940;-82
2023/03/19 12:59:17;;;;;;;;;;;15.10;66.00;;;;;;5023318;28;19936;-83
2023/03/19 13:01:47;;;;;;;;;;;15.20;66.20;;;;;;5022809;28;19937;-79
2023/03/19 13:04:16;;;;;;;;;;;15.20;66.20;;;;;;5019509;28;19937;-83
2023/03/19 13:06:44;;;;;;;;;;;15.10;65.90;;;;;;5023060;28;19929;-82
2023/03/19 13:09:15;;;;;;;;;;;15.10;66.20;;;;;;5024842;28;19933;-82
2023/03/19 13:11:45;;;;;;;;;;;15.10;66.00;;;;;;5026912;28;19929;-82
2023/03/19 13:14:16;;;;;;;;;;;15.10;66.20;;;;;;5026537;28;19940;-83
2023/03/19 13:16:46;;;;;;;;;;;15.10;66.30;;;;;;5025961;28;19940;-81
2023/03/19 13:19:19;;;;;;;;;;;15.10;66.20;;;;;;5026129;28;19928;-81
2023/03/19 13:21:49;;;;;;;;;;;15.10;66.30;;;;;;5025972;28;19929;-82
2023/03/19 13:24:19;;;;;;;;;;;15.10;66.50;;;;;;5022105;28;19933;-82
2023/03/19 13:26:46;;;;;;;;;;;15.10;66.20;;;;;;5028214;28;19984;-81
2023/03/19 13:29:16;;;;;;;;;;;15.10;66.10;;;;;;5025050;28;19983;-82
2023/03/19 13:31:43;;;;;;;;;;;15.10;66.30;;;;;;5019667;28;20020;-82
2023/03/19 13:34:20;;;;;;;;;;;15.10;65.70;;;;;;5024647;28;19935;-81
2023/03/19 13:36:47;;;;;;;;;;;15.00;65.60;;;;;;5025929;28;20011;-82
2023/03/19 13:39:15;;;;;;;;;;;15.10;65.90;;;;;;5022324;28;19941;-81
2023/03/19 13:41:50;;;;;;;;;;;15.00;65.80;;;;;;5027398;28;19952;-82
2023/03/19 13:44:35;;;;;;;;;;;15.00;66.10;;;;;;5025882;28;20003;-82
2023/03/19 13:47:02;;;;;;;;;;;15.00;66.30;;;;;;5022967;28;19929;-82
2023/03/19 13:49:34;;;;;;;;;;;15.00;66.30;;;;;;5027073;28;19972;-81
2023/03/19 13:52:03;;;;;;;;;;;15.00;66.40;;;;;;5027302;28;19940;-82
2023/03/19 13:54:39;;;;;;;;;;;15.00;66.50;;;;;;5026337;28;20020;-79
2023/03/19 13:57:17;;;;;;;;;;;15.00;67.00;;;;;;5022644;28;19964;-81
2023/03/19 13:59:44;;;;;;;;;;;15.00;67.50;;;;;;5020555;28;20013;-81
2023/03/19 14:02:25;;;;;;;;;;;15.00;68.10;;;;;;5023848;28;20560;-78
2023/03/19 14:04:57;;;;;;;;;;;15.00;68.40;;;;;;5022675;28;19936;-79
2023/03/19 14:07:26;;;;;;;;;;;15.00;68.40;;;;;;5022074;28;19933;-79
2023/03/19 14:10:04;;;;;;;;;;;15.00;68.40;;;;;;5020743;28;19956;-82
2023/03/19 14:12:32;;;;;;;;;;;15.00;68.50;;;;;;5023504;28;19929;-80
2023/03/19 14:15:01;;;;;;;;;;;15.10;68.50;;;;;;5026304;28;20445;-82
2023/03/19 14:17:30;;;;;;;;;;;15.10;68.60;;;;;;5022712;28;19995;-81
2023/03/19 14:20:03;;;;;;;;;;;15.10;68.60;;;;;;5025180;28;19933;-81
2023/03/19 14:22:34;;;;;;;;;;;15.10;68.60;;;;;;5024629;28;19967;-82